sensor_id;sensor_type;location;lat;lon;timestamp;P1;durP1;ratioP1;P2;durP2;ratioP2
78672;SDS011;67988;60.086;30.354;2023-08-12T00:00:01;4.78;;;2.72;;
78672;SDS011;67988;60.086;30.354;2023-08-12T00:02:36;6.05;;;3.05;;
78672;SDS011;67988;60.086;30.354;2023-08-12T00:05:04;6.05;;;3.70;;
78672;SDS011;67988;60.086;30.354;2023-08-12T00:07:31;5.10;;;3.42;;
78672;SDS011;67988;60.086;30.354;2023-08-12T00:09:59;9.63;;;4.07;;
78672;SDS011;67988;60.086;30.354;2023-08-12T00:12:26;8.55;;;4.45;;
78672;SDS011;67988;60.086;30.354;2023-08-12T00:14:53;8.45;;;4.15;;
78672;SDS011;67988;60.086;30.354;2023-08-12T00:17:22;9.25;;;4.00;;
78672;SDS011;67988;60.086;30.354;2023-08-12T00:19:49;7.95;;;4.10;;
78672;SDS011;67988;60.086;30.354;2023-08-12T00:22:16;10.15;;;3.70;;
78672;SDS011;67988;60.086;30.354;2023-08-12T00:24:43;8.85;;;3.70;;
78672;SDS011;67988;60.086;30.354;2023-08-12T00:27:11;8.00;;;4.13;;
78672;SDS011;67988;60.086;30.354;2023-08-12T00:29:38;6.53;;;3.58;;
78672;SDS011;67988;60.086;30.354;2023-08-12T00:32:05;9.60;;;3.25;;
78672;SDS011;67988;60.086;30.354;2023-08-12T00:34:36;5.65;;;3.78;;
78672;SDS011;67988;60.086;30.354;2023-08-12T00:37:03;8.52;;;3.63;;
78672;SDS011;67988;60.086;30.354;2023-08-12T00:39:31;5.07;;;3.15;;
78672;SDS011;67988;60.086;30.354;2023-08-12T00:41:58;8.18;;;3.92;;
78672;SDS011;67988;60.086;30.354;2023-08-12T00:44:25;11.70;;;3.70;;
78672;SDS011;67988;60.086;30.354;2023-08-12T00:46:52;5.38;;;4.18;;
78672;SDS011;67988;60.086;30.354;2023-08-12T00:49:20;10.13;;;4.45;;
78672;SDS011;67988;60.086;30.354;2023-08-12T00:51:49;8.00;;;3.97;;
78672;SDS011;67988;60.086;30.354;2023-08-12T00:54:19;9.23;;;4.40;;
78672;SDS011;67988;60.086;30.354;2023-08-12T00:56:48;6.35;;;4.18;;
78672;SDS011;67988;60.086;30.354;2023-08-12T00:59:16;8.18;;;4.20;;
78672;SDS011;67988;60.086;30.354;2023-08-12T01:01:45;7.57;;;4.00;;
78672;SDS011;67988;60.086;30.354;2023-08-12T01:04:13;9.35;;;5.15;;
78672;SDS011;67988;60.086;30.354;2023-08-12T01:06:41;9.65;;;4.50;;
78672;SDS011;67988;60.086;30.354;2023-08-12T01:09:10;8.23;;;5.38;;
78672;SDS011;67988;60.086;30.354;2023-08-12T01:11:39;9.38;;;3.95;;
78672;SDS011;67988;60.086;30.354;2023-08-12T01:14:14;8.63;;;5.10;;
78672;SDS011;67988;60.086;30.354;2023-08-12T01:16:50;7.05;;;4.45;;
78672;SDS011;67988;60.086;30.354;2023-08-12T01:19:21;6.75;;;4.43;;
78672;SDS011;67988;60.086;30.354;2023-08-12T01:22:00;6.72;;;4.47;;
78672;SDS011;67988;60.086;30.354;2023-08-12T01:24:34;11.32;;;5.00;;
78672;SDS011;67988;60.086;30.354;2023-08-12T01:27:03;6.75;;;3.95;;
78672;SDS011;67988;60.086;30.354;2023-08-12T01:29:31;7.10;;;4.88;;
78672;SDS011;67988;60.086;30.354;2023-08-12T01:32:03;9.30;;;4.40;;
78672;SDS011;67988;60.086;30.354;2023-08-12T01:34:39;11.35;;;5.10;;
78672;SDS011;67988;60.086;30.354;2023-08-12T01:37:14;9.10;;;5.15;;
78672;SDS011;67988;60.086;30.354;2023-08-12T01:39:49;10.48;;;5.28;;
78672;SDS011;67988;60.086;30.354;2023-08-12T01:42:19;9.80;;;5.38;;
78672;SDS011;67988;60.086;30.354;2023-08-12T01:44:46;9.57;;;5.13;;
78672;SDS011;67988;60.086;30.354;2023-08-12T01:47:14;11.88;;;6.38;;
78672;SDS011;67988;60.086;30.354;2023-08-12T01:49:41;12.90;;;8.63;;
78672;SDS011;67988;60.086;30.354;2023-08-12T01:52:09;10.85;;;8.60;;
78672;SDS011;67988;60.086;30.354;2023-08-12T01:54:37;14.38;;;8.32;;
78672;SDS011;67988;60.086;30.354;2023-08-12T01:57:07;12.95;;;7.88;;
78672;SDS011;67988;60.086;30.354;2023-08-12T01:59:34;11.32;;;7.43;;
78672;SDS011;67988;60.086;30.354;2023-08-12T02:04:31;13.73;;;8.20;;
78672;SDS011;67988;60.086;30.354;2023-08-12T02:06:58;12.43;;;7.93;;
78672;SDS011;67988;60.086;30.354;2023-08-12T02:09:25;13.30;;;8.75;;
78672;SDS011;67988;60.086;30.354;2023-08-12T02:11:52;11.43;;;8.20;;
78672;SDS011;67988;60.086;30.354;2023-08-12T02:14:21;10.57;;;7.18;;
78672;SDS011;67988;60.086;30.354;2023-08-12T02:16:48;10.70;;;6.78;;
78672;SDS011;67988;60.086;30.354;2023-08-12T02:19:15;10.55;;;7.15;;
78672;SDS011;67988;60.086;30.354;2023-08-12T02:21:43;11.15;;;6.15;;
78672;SDS011;67988;60.086;30.354;2023-08-12T02:24:10;10.88;;;6.32;;
78672;SDS011;67988;60.086;30.354;2023-08-12T02:26:38;12.27;;;6.70;;
78672;SDS011;67988;60.086;30.354;2023-08-12T02:29:05;12.60;;;7.30;;
78672;SDS011;67988;60.086;30.354;2023-08-12T02:31:34;15.25;;;7.03;;
78672;SDS011;67988;60.086;30.354;2023-08-12T02:34:01;12.85;;;8.27;;
78672;SDS011;67988;60.086;30.354;2023-08-12T02:36:29;15.40;;;8.40;;
78672;SDS011;67988;60.086;30.354;2023-08-12T02:38:56;9.80;;;7.60;;
78672;SDS011;67988;60.086;30.354;2023-08-12T02:41:23;11.75;;;8.18;;
78672;SDS011;67988;60.086;30.354;2023-08-12T02:43:50;13.77;;;8.43;;
78672;SDS011;67988;60.086;30.354;2023-08-12T02:46:17;14.32;;;8.27;;
78672;SDS011;67988;60.086;30.354;2023-08-12T02:48:46;15.07;;;8.00;;
78672;SDS011;67988;60.086;30.354;2023-08-12T02:51:14;10.68;;;6.82;;
78672;SDS011;67988;60.086;30.354;2023-08-12T02:53:41;9.02;;;7.00;;
78672;SDS011;67988;60.086;30.354;2023-08-12T02:56:08;15.85;;;8.27;;
78672;SDS011;67988;60.086;30.354;2023-08-12T02:58:35;12.82;;;8.23;;
78672;SDS011;67988;60.086;30.354;2023-08-12T03:01:03;13.88;;;8.95;;
78672;SDS011;67988;60.086;30.354;2023-08-12T03:03:30;15.80;;;10.05;;
78672;SDS011;67988;60.086;30.354;2023-08-12T03:05:59;16.30;;;10.27;;
78672;SDS011;67988;60.086;30.354;2023-08-12T03:08:28;19.88;;;14.50;;
78672;SDS011;67988;60.086;30.354;2023-08-12T03:13:26;24.15;;;14.98;;
78672;SDS011;67988;60.086;30.354;2023-08-12T03:15:54;19.25;;;11.43;;
78672;SDS011;67988;60.086;30.354;2023-08-12T03:18:22;13.45;;;8.43;;
78672;SDS011;67988;60.086;30.354;2023-08-12T03:20:49;13.63;;;8.20;;
78672;SDS011;67988;60.086;30.354;2023-08-12T03:23:18;13.23;;;7.70;;
78672;SDS011;67988;60.086;30.354;2023-08-12T03:25:46;8.98;;;6.88;;
78672;SDS011;67988;60.086;30.354;2023-08-12T03:28:14;8.60;;;5.88;;
78672;SDS011;67988;60.086;30.354;2023-08-12T03:30:49;15.05;;;6.55;;
78672;SDS011;67988;60.086;30.354;2023-08-12T03:33:19;7.43;;;5.82;;
78672;SDS011;67988;60.086;30.354;2023-08-12T03:35:47;8.80;;;5.72;;
78672;SDS011;67988;60.086;30.354;2023-08-12T03:38:16;17.75;;;6.43;;
78672;SDS011;67988;60.086;30.354;2023-08-12T03:40:45;11.25;;;6.28;;
78672;SDS011;67988;60.086;30.354;2023-08-12T03:43:15;10.20;;;5.50;;
78672;SDS011;67988;60.086;30.354;2023-08-12T03:45:44;10.38;;;5.35;;
78672;SDS011;67988;60.086;30.354;2023-08-12T03:48:14;8.63;;;5.47;;
78672;SDS011;67988;60.086;30.354;2023-08-12T03:50:41;8.18;;;5.38;;
78672;SDS011;67988;60.086;30.354;2023-08-12T03:53:11;8.65;;;5.25;;
78672;SDS011;67988;60.086;30.354;2023-08-12T03:55:39;13.63;;;6.13;;
78672;SDS011;67988;60.086;30.354;2023-08-12T03:58:09;10.63;;;6.10;;
78672;SDS011;67988;60.086;30.354;2023-08-12T04:00:40;13.52;;;6.95;;
78672;SDS011;67988;60.086;30.354;2023-08-12T04:03:08;11.35;;;5.82;;
78672;SDS011;67988;60.086;30.354;2023-08-12T04:05:36;11.90;;;6.00;;
78672;SDS011;67988;60.086;30.354;2023-08-12T04:08:03;10.70;;;6.63;;
78672;SDS011;67988;60.086;30.354;2023-08-12T04:10:31;13.38;;;6.75;;
78672;SDS011;67988;60.086;30.354;2023-08-12T04:12:58;9.93;;;6.70;;
78672;SDS011;67988;60.086;30.354;2023-08-12T04:15:26;12.43;;;7.40;;
78672;SDS011;67988;60.086;30.354;2023-08-12T04:17:54;9.80;;;7.25;;
78672;SDS011;67988;60.086;30.354;2023-08-12T04:20:21;14.60;;;7.38;;
78672;SDS011;67988;60.086;30.354;2023-08-12T04:22:48;12.25;;;8.13;;
78672;SDS011;67988;60.086;30.354;2023-08-12T04:25:16;13.52;;;7.15;;
78672;SDS011;67988;60.086;30.354;2023-08-12T04:27:43;10.60;;;6.85;;
78672;SDS011;67988;60.086;30.354;2023-08-12T04:30:13;11.88;;;7.57;;
78672;SDS011;67988;60.086;30.354;2023-08-12T04:35:09;12.70;;;7.20;;
78672;SDS011;67988;60.086;30.354;2023-08-12T04:37:37;17.17;;;7.47;;
78672;SDS011;67988;60.086;30.354;2023-08-12T04:40:07;27.10;;;8.32;;
78672;SDS011;67988;60.086;30.354;2023-08-12T04:42:35;17.75;;;8.10;;
78672;SDS011;67988;60.086;30.354;2023-08-12T04:45:04;14.95;;;7.35;;
78672;SDS011;67988;60.086;30.354;2023-08-12T04:47:32;10.95;;;7.18;;
78672;SDS011;67988;60.086;30.354;2023-08-12T04:50:01;12.10;;;8.15;;
78672;SDS011;67988;60.086;30.354;2023-08-12T04:52:30;13.63;;;8.23;;
78672;SDS011;67988;60.086;30.354;2023-08-12T04:54:57;15.68;;;8.30;;
78672;SDS011;67988;60.086;30.354;2023-08-12T04:57:25;16.77;;;8.60;;
78672;SDS011;67988;60.086;30.354;2023-08-12T04:59:53;14.15;;;9.75;;
78672;SDS011;67988;60.086;30.354;2023-08-12T05:02:21;14.45;;;9.52;;
78672;SDS011;67988;60.086;30.354;2023-08-12T05:04:48;20.00;;;9.45;;
78672;SDS011;67988;60.086;30.354;2023-08-12T05:07:17;12.88;;;7.82;;
78672;SDS011;67988;60.086;30.354;2023-08-12T05:09:45;13.75;;;8.93;;
78672;SDS011;67988;60.086;30.354;2023-08-12T05:12:14;16.15;;;8.57;;
78672;SDS011;67988;60.086;30.354;2023-08-12T05:14:41;15.80;;;8.57;;
78672;SDS011;67988;60.086;30.354;2023-08-12T05:17:08;13.25;;;8.52;;
78672;SDS011;67988;60.086;30.354;2023-08-12T05:19:36;13.93;;;8.48;;
78672;SDS011;67988;60.086;30.354;2023-08-12T05:22:03;14.23;;;8.20;;
78672;SDS011;67988;60.086;30.354;2023-08-12T05:24:32;14.48;;;8.38;;
78672;SDS011;67988;60.086;30.354;2023-08-12T05:26:59;16.85;;;7.68;;
78672;SDS011;67988;60.086;30.354;2023-08-12T05:29:26;13.07;;;7.65;;
78672;SDS011;67988;60.086;30.354;2023-08-12T05:31:53;14.00;;;8.57;;
78672;SDS011;67988;60.086;30.354;2023-08-12T05:34:20;13.25;;;8.57;;
78672;SDS011;67988;60.086;30.354;2023-08-12T05:36:48;12.25;;;7.68;;
78672;SDS011;67988;60.086;30.354;2023-08-12T05:39:15;18.95;;;8.23;;
78672;SDS011;67988;60.086;30.354;2023-08-12T05:41:45;17.17;;;7.25;;
78672;SDS011;67988;60.086;30.354;2023-08-12T05:44:12;16.13;;;7.63;;
78672;SDS011;67988;60.086;30.354;2023-08-12T05:46:39;16.10;;;8.07;;
78672;SDS011;67988;60.086;30.354;2023-08-12T05:49:06;16.25;;;7.60;;
78672;SDS011;67988;60.086;30.354;2023-08-12T05:51:33;14.55;;;7.57;;
78672;SDS011;67988;60.086;30.354;2023-08-12T05:54:01;25.42;;;8.38;;
78672;SDS011;67988;60.086;30.354;2023-08-12T05:56:29;33.45;;;8.23;;
78672;SDS011;67988;60.086;30.354;2023-08-12T05:58:57;28.88;;;7.47;;
78672;SDS011;67988;60.086;30.354;2023-08-12T06:01:25;18.80;;;6.18;;
78672;SDS011;67988;60.086;30.354;2023-08-12T06:03:52;20.73;;;5.60;;
78672;SDS011;67988;60.086;30.354;2023-08-12T06:06:19;14.88;;;4.75;;
78672;SDS011;67988;60.086;30.354;2023-08-12T06:08:47;9.48;;;3.95;;
78672;SDS011;67988;60.086;30.354;2023-08-12T06:11:14;13.43;;;4.90;;
78672;SDS011;67988;60.086;30.354;2023-08-12T06:13:41;20.73;;;4.30;;
78672;SDS011;67988;60.086;30.354;2023-08-12T06:18:37;30.48;;;4.05;;
78672;SDS011;67988;60.086;30.354;2023-08-12T06:21:04;16.17;;;4.57;;
78672;SDS011;67988;60.086;30.354;2023-08-12T06:23:31;38.83;;;6.13;;
78672;SDS011;67988;60.086;30.354;2023-08-12T06:25:58;11.45;;;3.53;;
78672;SDS011;67988;60.086;30.354;2023-08-12T06:28:26;16.13;;;3.80;;
78672;SDS011;67988;60.086;30.354;2023-08-12T06:30:53;13.30;;;4.03;;
78672;SDS011;67988;60.086;30.354;2023-08-12T06:33:22;7.90;;;2.63;;
78672;SDS011;67988;60.086;30.354;2023-08-12T06:35:49;7.32;;;3.13;;
78672;SDS011;67988;60.086;30.354;2023-08-12T06:38:19;9.07;;;2.80;;
78672;SDS011;67988;60.086;30.354;2023-08-12T06:40:47;11.32;;;3.45;;
78672;SDS011;67988;60.086;30.354;2023-08-12T06:43:14;4.93;;;2.30;;
78672;SDS011;67988;60.086;30.354;2023-08-12T06:45:41;4.95;;;2.08;;
78672;SDS011;67988;60.086;30.354;2023-08-12T06:48:09;3.00;;;1.88;;
78672;SDS011;67988;60.086;30.354;2023-08-12T06:50:37;10.30;;;2.65;;
78672;SDS011;67988;60.086;30.354;2023-08-12T06:53:04;5.10;;;2.95;;
78672;SDS011;67988;60.086;30.354;2023-08-12T06:55:32;6.70;;;2.70;;
78672;SDS011;67988;60.086;30.354;2023-08-12T06:57:59;5.53;;;2.42;;
78672;SDS011;67988;60.086;30.354;2023-08-12T07:00:28;6.97;;;2.97;;
78672;SDS011;67988;60.086;30.354;2023-08-12T07:02:55;6.63;;;3.08;;
78672;SDS011;67988;60.086;30.354;2023-08-12T07:05:22;8.10;;;2.78;;
78672;SDS011;67988;60.086;30.354;2023-08-12T07:07:50;6.10;;;2.22;;
78672;SDS011;67988;60.086;30.354;2023-08-12T07:10:18;6.75;;;2.25;;
78672;SDS011;67988;60.086;30.354;2023-08-12T07:12:45;5.05;;;2.90;;
78672;SDS011;67988;60.086;30.354;2023-08-12T07:15:12;4.07;;;2.40;;
78672;SDS011;67988;60.086;30.354;2023-08-12T07:17:39;8.27;;;2.35;;
78672;SDS011;67988;60.086;30.354;2023-08-12T07:20:07;6.38;;;3.25;;
78672;SDS011;67988;60.086;30.354;2023-08-12T07:22:34;5.25;;;2.50;;
78672;SDS011;67988;60.086;30.354;2023-08-12T07:25:03;6.93;;;2.05;;
78672;SDS011;67988;60.086;30.354;2023-08-12T07:27:31;9.68;;;2.53;;
78672;SDS011;67988;60.086;30.354;2023-08-12T07:29:58;4.00;;;2.20;;
78672;SDS011;67988;60.086;30.354;2023-08-12T07:32:25;5.07;;;2.42;;
78672;SDS011;67988;60.086;30.354;2023-08-12T07:34:52;3.67;;;2.40;;
78672;SDS011;67988;60.086;30.354;2023-08-12T07:37:20;5.47;;;2.72;;
78672;SDS011;67988;60.086;30.354;2023-08-12T07:39:47;7.00;;;2.80;;
78672;SDS011;67988;60.086;30.354;2023-08-12T07:42:15;8.80;;;3.05;;
78672;SDS011;67988;60.086;30.354;2023-08-12T07:44:43;5.40;;;2.97;;
78672;SDS011;67988;60.086;30.354;2023-08-12T07:47:10;7.00;;;2.85;;
78672;SDS011;67988;60.086;30.354;2023-08-12T07:49:37;9.77;;;2.70;;
78672;SDS011;67988;60.086;30.354;2023-08-12T07:54:32;12.77;;;2.80;;
78672;SDS011;67988;60.086;30.354;2023-08-12T07:56:59;9.05;;;2.95;;
78672;SDS011;67988;60.086;30.354;2023-08-12T07:59:27;13.80;;;3.15;;
78672;SDS011;67988;60.086;30.354;2023-08-12T08:01:54;14.38;;;3.92;;
78672;SDS011;67988;60.086;30.354;2023-08-12T08:04:22;35.75;;;4.72;;
78672;SDS011;67988;60.086;30.354;2023-08-12T08:06:49;19.52;;;3.70;;
78672;SDS011;67988;60.086;30.354;2023-08-12T08:09:16;14.57;;;3.95;;
78672;SDS011;67988;60.086;30.354;2023-08-12T08:11:43;7.53;;;3.17;;
78672;SDS011;67988;60.086;30.354;2023-08-12T08:14:10;11.32;;;2.75;;
78672;SDS011;67988;60.086;30.354;2023-08-12T08:16:39;5.93;;;3.00;;
78672;SDS011;67988;60.086;30.354;2023-08-12T08:19:07;12.35;;;2.95;;
78672;SDS011;67988;60.086;30.354;2023-08-12T08:21:35;5.22;;;3.00;;
78672;SDS011;67988;60.086;30.354;2023-08-12T08:24:02;5.50;;;2.75;;
78672;SDS011;67988;60.086;30.354;2023-08-12T08:26:29;7.75;;;2.85;;
78672;SDS011;67988;60.086;30.354;2023-08-12T08:28:57;5.10;;;2.67;;
78672;SDS011;67988;60.086;30.354;2023-08-12T08:31:24;7.32;;;3.60;;
78672;SDS011;67988;60.086;30.354;2023-08-12T08:33:52;8.15;;;2.90;;
78672;SDS011;67988;60.086;30.354;2023-08-12T08:36:19;6.50;;;3.05;;
78672;SDS011;67988;60.086;30.354;2023-08-12T08:38:47;8.50;;;3.55;;
78672;SDS011;67988;60.086;30.354;2023-08-12T08:41:14;11.40;;;3.22;;
78672;SDS011;67988;60.086;30.354;2023-08-12T08:43:43;9.98;;;3.55;;
78672;SDS011;67988;60.086;30.354;2023-08-12T08:46:13;5.18;;;2.75;;
78672;SDS011;67988;60.086;30.354;2023-08-12T08:48:41;10.55;;;3.30;;
78672;SDS011;67988;60.086;30.354;2023-08-12T08:51:11;7.95;;;3.60;;
78672;SDS011;67988;60.086;30.354;2023-08-12T08:53:39;234.90;;;22.70;;
78672;SDS011;67988;60.086;30.354;2023-08-12T08:56:07;6.45;;;2.90;;
78672;SDS011;67988;60.086;30.354;2023-08-12T08:58:37;9.23;;;3.10;;
78672;SDS011;67988;60.086;30.354;2023-08-12T09:01:05;7.53;;;3.05;;
78672;SDS011;67988;60.086;30.354;2023-08-12T09:03:33;8.90;;;3.38;;
78672;SDS011;67988;60.086;30.354;2023-08-12T09:06:03;8.50;;;3.22;;
78672;SDS011;67988;60.086;30.354;2023-08-12T09:08:32;8.15;;;2.80;;
78672;SDS011;67988;60.086;30.354;2023-08-12T09:11:00;7.07;;;3.47;;
78672;SDS011;67988;60.086;30.354;2023-08-12T09:13:29;4.88;;;3.22;;
78672;SDS011;67988;60.086;30.354;2023-08-12T09:15:58;9.13;;;4.07;;
78672;SDS011;67988;60.086;30.354;2023-08-12T09:18:25;7.13;;;3.00;;
78672;SDS011;67988;60.086;30.354;2023-08-12T09:20:53;7.47;;;3.85;;
78672;SDS011;67988;60.086;30.354;2023-08-12T09:23:20;22.38;;;4.85;;
78672;SDS011;67988;60.086;30.354;2023-08-12T09:28:16;7.72;;;3.15;;
78672;SDS011;67988;60.086;30.354;2023-08-12T09:30:43;20.20;;;4.20;;
78672;SDS011;67988;60.086;30.354;2023-08-12T09:33:18;5.30;;;3.03;;
78672;SDS011;67988;60.086;30.354;2023-08-12T09:35:51;6.13;;;3.45;;
78672;SDS011;67988;60.086;30.354;2023-08-12T12:51:12;11.85;;;3.10;;
78672;SDS011;67988;60.086;30.354;2023-08-12T12:53:40;9.23;;;3.97;;
78672;SDS011;67988;60.086;30.354;2023-08-12T12:56:07;10.68;;;4.00;;
78672;SDS011;67988;60.086;30.354;2023-08-12T13:01:02;17.38;;;3.95;;
78672;SDS011;67988;60.086;30.354;2023-08-12T13:03:30;9.93;;;4.53;;
78672;SDS011;67988;60.086;30.354;2023-08-12T13:05:58;6.72;;;3.10;;
78672;SDS011;67988;60.086;30.354;2023-08-12T13:08:27;13.02;;;3.92;;
78672;SDS011;67988;60.086;30.354;2023-08-12T13:10:55;12.90;;;4.45;;
78672;SDS011;67988;60.086;30.354;2023-08-12T13:13:22;6.22;;;3.30;;
78672;SDS011;67988;60.086;30.354;2023-08-12T13:15:50;5.57;;;2.97;;
78672;SDS011;67988;60.086;30.354;2023-08-12T13:18:17;22.60;;;4.70;;
78672;SDS011;67988;60.086;30.354;2023-08-12T13:23:11;7.85;;;3.70;;
78672;SDS011;67988;60.086;30.354;2023-08-12T13:25:40;4.97;;;2.80;;
78672;SDS011;67988;60.086;30.354;2023-08-12T13:28:07;5.60;;;2.40;;
78672;SDS011;67988;60.086;30.354;2023-08-12T13:33:02;8.38;;;3.50;;
78672;SDS011;67988;60.086;30.354;2023-08-12T13:35:30;4.95;;;2.83;;
78672;SDS011;67988;60.086;30.354;2023-08-12T13:37:57;3.47;;;2.92;;
78672;SDS011;67988;60.086;30.354;2023-08-12T13:40:25;6.38;;;2.42;;
78672;SDS011;67988;60.086;30.354;2023-08-12T13:42:53;4.72;;;2.47;;
78672;SDS011;67988;60.086;30.354;2023-08-12T13:45:21;6.68;;;2.60;;
78672;SDS011;67988;60.086;30.354;2023-08-12T13:47:49;6.90;;;2.58;;
78672;SDS011;67988;60.086;30.354;2023-08-12T13:50:17;6.90;;;2.67;;
78672;SDS011;67988;60.086;30.354;2023-08-12T13:52:45;5.80;;;2.50;;
78672;SDS011;67988;60.086;30.354;2023-08-12T13:55:13;6.93;;;2.95;;
78672;SDS011;67988;60.086;30.354;2023-08-12T13:57:40;4.15;;;2.90;;
78672;SDS011;67988;60.086;30.354;2023-08-12T14:00:09;3.92;;;2.83;;
78672;SDS011;67988;60.086;30.354;2023-08-12T14:02:38;3.67;;;3.17;;
78672;SDS011;67988;60.086;30.354;2023-08-12T14:05:06;5.15;;;2.42;;
78672;SDS011;67988;60.086;30.354;2023-08-12T14:07:34;15.27;;;4.70;;
78672;SDS011;67988;60.086;30.354;2023-08-12T14:10:01;4.38;;;2.47;;
78672;SDS011;67988;60.086;30.354;2023-08-12T14:12:28;5.07;;;2.53;;
78672;SDS011;67988;60.086;30.354;2023-08-12T14:14:55;3.63;;;2.78;;
78672;SDS011;67988;60.086;30.354;2023-08-12T14:17:24;4.55;;;2.78;;
78672;SDS011;67988;60.086;30.354;2023-08-12T14:19:51;4.30;;;3.03;;
78672;SDS011;67988;60.086;30.354;2023-08-12T14:22:19;7.20;;;2.72;;
78672;SDS011;67988;60.086;30.354;2023-08-12T14:27:14;8.30;;;2.58;;
78672;SDS011;67988;60.086;30.354;2023-08-12T14:29:42;4.80;;;2.42;;
78672;SDS011;67988;60.086;30.354;2023-08-12T14:32:10;4.75;;;2.22;;
78672;SDS011;67988;60.086;30.354;2023-08-12T14:34:38;5.25;;;2.28;;
78672;SDS011;67988;60.086;30.354;2023-08-12T14:37:06;4.85;;;2.20;;
78672;SDS011;67988;60.086;30.354;2023-08-12T14:39:33;4.40;;;1.80;;
78672;SDS011;67988;60.086;30.354;2023-08-12T14:42:00;5.97;;;2.78;;
78672;SDS011;67988;60.086;30.354;2023-08-12T14:44:29;2.75;;;1.98;;
78672;SDS011;67988;60.086;30.354;2023-08-12T14:46:57;4.97;;;2.42;;
78672;SDS011;67988;60.086;30.354;2023-08-12T14:49:25;6.07;;;2.13;;
78672;SDS011;67988;60.086;30.354;2023-08-12T14:51:55;5.03;;;2.47;;
78672;SDS011;67988;60.086;30.354;2023-08-12T14:54:22;3.63;;;2.00;;
78672;SDS011;67988;60.086;30.354;2023-08-12T14:56:49;2.13;;;1.65;;
78672;SDS011;67988;60.086;30.354;2023-08-12T14:59:17;5.18;;;2.20;;
78672;SDS011;67988;60.086;30.354;2023-08-12T15:04:11;3.95;;;1.75;;
78672;SDS011;67988;60.086;30.354;2023-08-12T15:06:39;7.70;;;2.03;;
78672;SDS011;67988;60.086;30.354;2023-08-12T15:09:07;3.33;;;2.05;;
78672;SDS011;67988;60.086;30.354;2023-08-12T15:11:35;4.03;;;2.35;;
78672;SDS011;67988;60.086;30.354;2023-08-12T15:14:02;8.63;;;2.17;;
78672;SDS011;67988;60.086;30.354;2023-08-12T15:18:57;5.65;;;2.75;;
78672;SDS011;67988;60.086;30.354;2023-08-12T15:21:24;6.78;;;4.43;;
78672;SDS011;67988;60.086;30.354;2023-08-12T15:23:51;4.75;;;3.25;;
78672;SDS011;67988;60.086;30.354;2023-08-12T15:26:20;5.78;;;3.05;;
78672;SDS011;67988;60.086;30.354;2023-08-12T15:28:48;4.88;;;2.83;;
78672;SDS011;67988;60.086;30.354;2023-08-12T15:31:15;3.78;;;1.90;;
78672;SDS011;67988;60.086;30.354;2023-08-12T15:33:43;5.85;;;2.35;;
78672;SDS011;67988;60.086;30.354;2023-08-12T15:36:10;6.28;;;3.38;;
78672;SDS011;67988;60.086;30.354;2023-08-12T15:38:37;5.68;;;2.03;;
78672;SDS011;67988;60.086;30.354;2023-08-12T15:41:05;4.45;;;1.55;;
78672;SDS011;67988;60.086;30.354;2023-08-12T15:43:41;12.18;;;2.45;;
78672;SDS011;67988;60.086;30.354;2023-08-12T15:46:08;5.18;;;1.75;;
78672;SDS011;67988;60.086;30.354;2023-08-12T15:51:03;8.07;;;2.53;;
78672;SDS011;67988;60.086;30.354;2023-08-12T15:53:30;4.80;;;2.00;;
78672;SDS011;67988;60.086;30.354;2023-08-12T15:55:57;2.97;;;1.90;;
78672;SDS011;67988;60.086;30.354;2023-08-12T15:58:24;6.70;;;2.67;;
78672;SDS011;67988;60.086;30.354;2023-08-12T16:00:53;4.55;;;2.25;;
78672;SDS011;67988;60.086;30.354;2023-08-12T16:03:20;5.00;;;2.10;;
78672;SDS011;67988;60.086;30.354;2023-08-12T16:05:47;2.67;;;1.90;;
78672;SDS011;67988;60.086;30.354;2023-08-12T16:08:15;4.00;;;2.60;;
78672;SDS011;67988;60.086;30.354;2023-08-12T16:10:42;2.55;;;1.95;;
78672;SDS011;67988;60.086;30.354;2023-08-12T16:15:36;4.70;;;2.47;;
78672;SDS011;67988;60.086;30.354;2023-08-12T16:18:05;3.30;;;1.48;;
78672;SDS011;67988;60.086;30.354;2023-08-12T16:20:32;4.22;;;2.38;;
78672;SDS011;67988;60.086;30.354;2023-08-12T16:25:27;5.18;;;2.25;;
78672;SDS011;67988;60.086;30.354;2023-08-12T16:27:54;3.25;;;1.95;;
78672;SDS011;67988;60.086;30.354;2023-08-12T16:30:21;5.03;;;2.08;;
78672;SDS011;67988;60.086;30.354;2023-08-12T16:35:16;4.60;;;1.70;;
78672;SDS011;67988;60.086;30.354;2023-08-12T16:37:44;4.22;;;2.22;;
78672;SDS011;67988;60.086;30.354;2023-08-12T16:40:11;4.18;;;2.42;;
78672;SDS011;67988;60.086;30.354;2023-08-12T16:42:38;2.95;;;2.00;;
78672;SDS011;67988;60.086;30.354;2023-08-12T16:45:06;2.38;;;2.17;;
78672;SDS011;67988;60.086;30.354;2023-08-12T16:47:34;3.55;;;1.98;;
78672;SDS011;67988;60.086;30.354;2023-08-12T16:50:01;5.18;;;1.83;;
78672;SDS011;67988;60.086;30.354;2023-08-12T16:52:31;3.72;;;1.90;;
78672;SDS011;67988;60.086;30.354;2023-08-12T16:54:58;3.75;;;2.60;;
78672;SDS011;67988;60.086;30.354;2023-08-12T16:57:25;3.35;;;2.20;;
78672;SDS011;67988;60.086;30.354;2023-08-12T16:59:52;8.07;;;1.80;;
78672;SDS011;67988;60.086;30.354;2023-08-12T17:02:19;6.10;;;2.95;;
78672;SDS011;67988;60.086;30.354;2023-08-12T17:04:47;5.10;;;2.28;;
78672;SDS011;67988;60.086;30.354;2023-08-12T17:07:14;4.78;;;2.63;;
78672;SDS011;67988;60.086;30.354;2023-08-12T17:09:43;3.42;;;2.40;;
78672;SDS011;67988;60.086;30.354;2023-08-12T17:12:10;3.67;;;1.95;;
78672;SDS011;67988;60.086;30.354;2023-08-12T17:14:37;3.47;;;1.67;;
78672;SDS011;67988;60.086;30.354;2023-08-12T17:17:04;7.57;;;2.63;;
78672;SDS011;67988;60.086;30.354;2023-08-12T17:19:31;3.67;;;2.20;;
78672;SDS011;67988;60.086;30.354;2023-08-12T17:22:00;3.72;;;2.63;;
78672;SDS011;67988;60.086;30.354;2023-08-12T17:24:28;4.18;;;2.53;;
78672;SDS011;67988;60.086;30.354;2023-08-12T17:26:56;4.20;;;1.90;;
78672;SDS011;67988;60.086;30.354;2023-08-12T17:29:23;6.45;;;2.70;;
78672;SDS011;67988;60.086;30.354;2023-08-12T17:31:51;3.10;;;1.98;;
78672;SDS011;67988;60.086;30.354;2023-08-12T17:34:18;3.72;;;2.35;;
78672;SDS011;67988;60.086;30.354;2023-08-12T17:36:45;3.22;;;1.95;;
78672;SDS011;67988;60.086;30.354;2023-08-12T17:39:12;3.22;;;2.08;;
78672;SDS011;67988;60.086;30.354;2023-08-12T17:41:40;3.22;;;1.95;;
78672;SDS011;67988;60.086;30.354;2023-08-12T17:44:08;5.00;;;2.17;;
78672;SDS011;67988;60.086;30.354;2023-08-12T17:46:35;4.53;;;1.95;;
78672;SDS011;67988;60.086;30.354;2023-08-12T17:51:30;2.70;;;2.30;;
78672;SDS011;67988;60.086;30.354;2023-08-12T17:53:57;3.03;;;2.35;;
78672;SDS011;67988;60.086;30.354;2023-08-12T17:56:24;5.30;;;2.30;;
78672;SDS011;67988;60.086;30.354;2023-08-12T17:58:51;7.80;;;2.08;;
78672;SDS011;67988;60.086;30.354;2023-08-12T18:01:20;2.80;;;2.50;;
78672;SDS011;67988;60.086;30.354;2023-08-12T18:03:47;3.60;;;2.40;;
78672;SDS011;67988;60.086;30.354;2023-08-12T18:06:14;3.33;;;1.85;;
78672;SDS011;67988;60.086;30.354;2023-08-12T18:08:42;4.45;;;2.35;;
78672;SDS011;67988;60.086;30.354;2023-08-12T18:11:09;5.80;;;2.65;;
78672;SDS011;67988;60.086;30.354;2023-08-12T18:13:36;3.50;;;2.65;;
78672;SDS011;67988;60.086;30.354;2023-08-12T18:16:03;5.15;;;2.67;;
78672;SDS011;67988;60.086;30.354;2023-08-12T18:20:59;4.38;;;3.13;;
78672;SDS011;67988;60.086;30.354;2023-08-12T18:23:26;5.25;;;2.53;;
78672;SDS011;67988;60.086;30.354;2023-08-12T18:25:54;6.28;;;2.47;;
78672;SDS011;67988;60.086;30.354;2023-08-12T18:28:21;4.80;;;2.90;;